Aérodrome :
LOGIN :

S'inscrire | Disclaimer

   EN    FR    IT 

 










Légende :    VFR   VFR Marginal   IFR   IFR Intensif   IFR Très Intensif
Visi : 
Plafond : 
>= 8 km
>= 3000ft
5 à 8 km
1000 à 3000 ft
1500m à 5 km
500 à 1000 ft
800 à 1500m
200 à 500 ft
< 800m
< 200 ft
Symboles :   Orages  Brouillard  Fortes neiges  Fortes précipitations  Vent > 20 kt
SIGMETs :   Divers  Orages  Givrage  Turbulence  Onde Orograph.  Cendres Volcan.






- Altitude de l'aérodrome : 308 ft
- Code IATA : POZ


EPPO - Poznan-Lawica

DERNIER METAR :
  • 230200Z 24014KT 9999 -SHRA OVC024CB 07/03 Q1011

METARs EXPIRÉS :
  • 230130Z 25014KT 9999 -SHRA BKN027CB 07/03 Q1011
  • 230100Z 25011KT 9999 SCT022 BKN029CB 06/04 Q1012
  • 230030Z 25016KT 9999 -SHRA OVC030CB 06/04 Q1012
  • 230000Z 25017KT 9999 -SHRA FEW024 OVC039CB 07/03 Q1012
  • 222330Z 24015KT CAVOK 07/02 Q1012

TAF TAF EPPO
Valide du 23 à 00h jusqu'au 24 à 00h UTC


222330Z 2300/2324 25018KT CAVOK
TEMPO 2300/2308 27020G40KT SHRA BKN020CB
BECMG 2308/2310 VRB02KT 4000 RA SCT007 BKN014
BECMG 2318/2320 29020G30KT CAVOK
TEMPO 2320/2324 30030G40KT SHRA BKN020CB



MET'MAP, la Météo Aéronautique d'un coup d'oeil ! - Copyright ORBIFLY Décembre 2007 - Disclaimer

ORBIFLY MET'MAP TEAM :

Programmation & Développement : Alexandra Zaïnal
Sur une idée originale de : Baudouin d'Aumeries
Assistance à la programmation : Marc-Olivier Méhu
Soutien technique & logistique : Manuel Goepfert

Contact : metmap@orbifly.com




SOURCES & CREDITS :

   NOAA